Weather at Packer Airport

Public forecast

Using degrees Fahrenheit for public forecast. Weather courtesy of forecast.io.

Closest aviation weather report (METAR) to Packer Airport

Closest report is Delaware Municipal Airport, 9.1 nm (16.8 km) SSE. Retrieved 2021/04/14 03:55 UTC (13 minutes ago):

KDLZ 140355Z AUTO 00000KT 10SM SCT060 SCT100 11/05 A3011 RMK AO2

Closest aviation forecast (TAF) to Packer Airport

Closest forecast is John Glenn Columbus International Airport, 28.8 nm (53.4 km) SSE. Retrieved 2021-04-14 00:45 UTC (3 hours ago):

TAF KCMH 132342Z 1400/1424 27009KT P6SM SCT100 FM140400 28005KT P6SM BKN100 FM141600 26007KT P6SM SCT040 SCT100